Station Historical Data
Daily Summary for July 9, 2017 Units:  Metric    English   Both
« Previous Day
Next Day »
Daily Weekly Monthly Yearly Custom
  High: Low: Average:
Temperature: 31.1 °C 20.7 °C 25 °C
Dew Point: 21.8 °C 17.1 °C 20 °C
Humidity: 95% 48% 76%
Wind Speed: 5.6km/h 0km/h 5.1km/h
Wind Gust: 5.6km/h - -
Wind- - East
Pressure: 1018.8 hPa 1016.1 hPa -
Precipitation: 0 mm    
Historical Graphs
 
 
Tabular Data for July 9, 2017
Time Temperature Dew Point Pressure Wind Wind Speed Wind Gust Humidity Rainfall Rate (Hourly) solar Conditions
00:01 21.3 °C 19.9 °C 1016.5 hPa NE 5 km/h   92% 0 mm WeatherDisplay:10.37 W/m2 SCT
00:06 21.3 °C 19.9 °C 1016.5 hPa NE 5 km/h   92% 0 mm WeatherDisplay:10.37 W/m2 SCT
00:11 21.3 °C 19.9 °C 1016.5 hPa NE 5 km/h   92% 0 mm WeatherDisplay:10.37 W/m2 SCT
00:16 21.2 °C 19.9 °C 1016.5 hPa NE 5 km/h   92% 0 mm WeatherDisplay:10.37 W/m2 SCT
00:21 21.2 °C 19.9 °C 1016.5 hPa NE 5 km/h   92% 0 mm WeatherDisplay:10.37 W/m2 CLR
00:26 21.3 °C 20.2 °C 1016.5 hPa NE 5 km/h   93% 0 mm WeatherDisplay:10.37 W/m2 CLR
00:31 21.4 °C 20.2 °C 1016.5 hPa NE 5 km/h   93% 0 mm WeatherDisplay:10.37 W/m2 CLR
00:36 21.4 °C 20.2 °C 1016.5 hPa NE 5 km/h   93% 0 mm WeatherDisplay:10.37 W/m2 CLR
00:38 21.4 °C 20.2 °C 1016.5 hPa NE 5 km/h   93% 0 mm WeatherDisplay:10.37 W/m2 CLR
00:43 21.4 °C 20.3 °C 1016.5 hPa NE 5 km/h   93% 0 mm WeatherDisplay:10.37 W/m2 CLR
00:48 21.4 °C 20.2 °C 1016.1 hPa NE 5 km/h   93% 0 mm WeatherDisplay:10.37 W/m2 CLR
00:53 21.4 °C 20.3 °C 1016.5 hPa NE 5 km/h   93% 0 mm WeatherDisplay:10.37 W/m2 CLR
00:58 21.4 °C 20.3 °C 1016.5 hPa NE 5 km/h   93% 0 mm WeatherDisplay:10.37 W/m2 CLR
01:03 21.4 °C 20.2 °C 1016.5 hPa NE 5 km/h   93% 0 mm WeatherDisplay:10.37 W/m2 CLR
01:08 21.2 °C 19.9 °C 1016.5 hPa NE 5 km/h   92% 0 mm WeatherDisplay:10.37 W/m2 CLR
01:13 21.6 °C 20.8 °C 1016.5 hPa ENE 5 km/h   95% 0 mm WeatherDisplay:10.37 W/m2 CLR
01:18 21.6 °C 20.8 °C 1016.5 hPa ENE 5 km/h   95% 0 mm WeatherDisplay:10.37 W/m2 CLR
01:23 21.6 °C 20.8 °C 1016.5 hPa North 5 km/h   95% 0 mm WeatherDisplay:10.37 W/m2 CLR
01:28 21.6 °C 20.8 °C 1016.5 hPa North 5 km/h   95% 0 mm WeatherDisplay:10.37 W/m2 CLR
01:33 21.6 °C 20.8 °C 1016.5 hPa North 5 km/h   95% 0 mm WeatherDisplay:10.37 W/m2 CLR
01:38 21.6 °C 20.8 °C 1016.5 hPa North 5 km/h   95% 0 mm WeatherDisplay:10.37 W/m2 CLR
01:43 21.6 °C 20.8 °C 1016.5 hPa North 5 km/h   95% 0 mm WeatherDisplay:10.37 W/m2 CLR
01:49 21.6 °C 20.8 °C 1016.5 hPa North 5 km/h   95% 0 mm WeatherDisplay:10.37 W/m2 CLR
01:54 21.6 °C 20.8 °C 1016.5 hPa North 5 km/h   95% 0 mm WeatherDisplay:10.37 W/m2 CLR
01:59 21.6 °C 20.8 °C 1016.5 hPa North 5 km/h   95% 0 mm WeatherDisplay:10.37 W/m2 CLR
02:04 21.6 °C 20.8 °C 1016.5 hPa North 5 km/h   95% 0 mm WeatherDisplay:10.37 W/m2 CLR
02:09 21.6 °C 20.8 °C 1016.5 hPa North 5 km/h   95% 0 mm WeatherDisplay:10.37 W/m2 CLR
02:14 21.6 °C 20.8 °C 1016.5 hPa North 5 km/h   95% 0 mm WeatherDisplay:10.37 W/m2 CLR
02:19 21.6 °C 20.8 °C 1016.8 hPa North 5 km/h   95% 0 mm WeatherDisplay:10.37 W/m2 CLR
02:24 21.6 °C 20.8 °C 1016.5 hPa North 5 km/h   95% 0 mm WeatherDisplay:10.37 W/m2 CLR
02:27 21.6 °C 20.8 °C 1016.5 hPa North 5 km/h   95% 0 mm WeatherDisplay:10.37 W/m2 CLR
02:32 21.6 °C 20.8 °C 1016.5 hPa North 5 km/h   95% 0 mm WeatherDisplay:10.37 W/m2 CLR
02:37 21.6 °C 20.8 °C 1016.5 hPa North 5 km/h   95% 0 mm WeatherDisplay:10.37 W/m2 CLR
02:42 21.6 °C 20.8 °C 1016.5 hPa North 5 km/h   95% 0 mm WeatherDisplay:10.37 W/m2 CLR
02:47 21.6 °C 20.8 °C 1016.5 hPa North 5 km/h   95% 0 mm WeatherDisplay:10.37 W/m2 CLR
02:52 21.6 °C 20.8 °C 1016.5 hPa North 5 km/h   95% 0 mm WeatherDisplay:10.37 W/m2 CLR
02:57 21.6 °C 20.8 °C 1016.5 hPa North 5 km/h   95% 0 mm WeatherDisplay:10.37 W/m2 CLR
03:02 21.6 °C 20.8 °C 1016.5 hPa North 5 km/h   95% 0 mm WeatherDisplay:10.37 W/m2 CLR
03:07 21.6 °C 20.8 °C 1016.5 hPa North 5 km/h   95% 0 mm WeatherDisplay:10.37 W/m2 CLR
03:12 21.6 °C 20.8 °C 1016.5 hPa North 5 km/h   95% 0 mm WeatherDisplay:10.37 W/m2 CLR
03:17 21.6 °C 20.8 °C 1016.5 hPa North 5 km/h   95% 0 mm WeatherDisplay:10.37 W/m2 CLR
03:22 21.6 °C 20.8 °C 1016.5 hPa North 5 km/h   95% 0 mm WeatherDisplay:10.37 W/m2 CLR
03:28 21.6 °C 20.8 °C 1016.5 hPa North 5 km/h   95% 0 mm WeatherDisplay:10.37 W/m2 CLR
03:33 21.6 °C 20.8 °C 1016.5 hPa North 5 km/h   95% 0 mm WeatherDisplay:10.37 W/m2 CLR
03:38 21.6 °C 20.8 °C 1016.5 hPa North 5 km/h   95% 0 mm WeatherDisplay:10.37 W/m2 CLR
03:43 21.6 °C 20.8 °C 1016.5 hPa North 5 km/h   95% 0 mm WeatherDisplay:10.37 W/m2 CLR
03:48 21.6 °C 20.8 °C 1016.5 hPa North 5 km/h   95% 0 mm WeatherDisplay:10.37 W/m2 CLR
03:53 21.6 °C 20.8 °C 1016.8 hPa North 5 km/h   95% 0 mm WeatherDisplay:10.37 W/m2 CLR
03:58 21.6 °C 20.8 °C 1016.5 hPa North 5 km/h   95% 0 mm WeatherDisplay:10.37 W/m2 CLR
04:03 21.6 °C 20.8 °C 1016.8 hPa North 5 km/h   95% 0 mm WeatherDisplay:10.37 W/m2 CLR
04:08 21.6 °C 20.8 °C 1016.5 hPa North 5 km/h   95% 0 mm WeatherDisplay:10.37 W/m2 CLR
04:13 21.6 °C 20.8 °C 1016.5 hPa North 5 km/h   95% 0 mm WeatherDisplay:10.37 W/m2 CLR
04:18 21.6 °C 20.8 °C 1016.8 hPa North 5 km/h   95% 0 mm WeatherDisplay:10.37 W/m2 CLR
04:23 21.6 °C 20.8 °C 1016.8 hPa North 5 km/h   95% 0 mm WeatherDisplay:10.37 W/m2 CLR
04:28 21.6 °C 20.8 °C 1016.8 hPa North 5 km/h   95% 0 mm WeatherDisplay:10.37 W/m2 CLR
04:33 21.6 °C 20.8 °C 1016.8 hPa North 5 km/h   95% 0 mm WeatherDisplay:10.37 W/m2 CLR
04:38 21.6 °C 20.8 °C 1016.8 hPa North 5 km/h   95% 0 mm WeatherDisplay:10.37 W/m2 CLR
04:44 21.6 °C 20.8 °C 1016.8 hPa North 5 km/h   95% 0 mm WeatherDisplay:10.37 W/m2 CLR
04:49 21.6 °C 20.8 °C 1016.8 hPa North 5 km/h   95% 0 mm WeatherDisplay:10.37 W/m2 CLR
04:54 21.6 °C 20.8 °C 1016.8 hPa North 5 km/h   95% 0 mm WeatherDisplay:10.37 W/m2 CLR
04:59 21.6 °C 20.8 °C 1016.8 hPa North 5 km/h   95% 0 mm WeatherDisplay:10.37 W/m2 CLR
05:04 21.6 °C 20.8 °C 1016.8 hPa North 5 km/h   95% 0 mm WeatherDisplay:10.37 W/m2 CLR
05:09 21.6 °C 20.8 °C 1016.8 hPa North 5 km/h   95% 0 mm WeatherDisplay:10.37 W/m2 CLR
05:14 21.6 °C 20.8 °C 1016.8 hPa North 5 km/h   95% 0 mm WeatherDisplay:10.37 W/m2 CLR
05:19 21.6 °C 20.8 °C 1016.8 hPa North 5 km/h   95% 0 mm WeatherDisplay:10.37 W/m2 CLR
05:24 21.6 °C 20.8 °C 1016.8 hPa North 5 km/h   95% 0 mm WeatherDisplay:10.37 W/m2 CLR
05:29 21.6 °C 20.8 °C 1017.2 hPa North 5 km/h   95% 0 mm WeatherDisplay:10.37 W/m2 CLR
05:34 21.6 °C 20.8 °C 1017.2 hPa North 5 km/h   95% 0 mm WeatherDisplay:10.37 W/m2 CLR
05:39 21.6 °C 20.8 °C 1016.8 hPa North 5 km/h   95% 0 mm WeatherDisplay:10.37 W/m2 CLR
05:44 21.6 °C 20.8 °C 1017.2 hPa North 5 km/h   95% 0 mm WeatherDisplay:10.37 W/m2 CLR
05:49 21.6 °C 20.8 °C 1017.2 hPa North 5 km/h   95% 0 mm WeatherDisplay:10.37 W/m2 CLR
05:54 21.6 °C 20.8 °C 1017.2 hPa North 5 km/h   95% 0 mm WeatherDisplay:10.37 W/m2 CLR
05:59 21.6 °C 20.8 °C 1016.8 hPa North 5 km/h   95% 0 mm WeatherDisplay:10.37 W/m2 CLR
06:04 21.6 °C 20.8 °C 1016.8 hPa North 5 km/h   95% 0 mm WeatherDisplay:10.37 W/m2 CLR
06:10 21.6 °C 20.8 °C 1017.2 hPa North 5 km/h   95% 0 mm WeatherDisplay:10.37 W/m2 CLR
06:15 21.6 °C 20.8 °C 1017.2 hPa North 5 km/h   95% 0 mm WeatherDisplay:10.37 W/m2 CLR
06:20 21.6 °C 20.8 °C 1017.2 hPa North 5 km/h   95% 0 mm WeatherDisplay:10.37 W/m2 CLR
06:25 21.6 °C 20.8 °C 1017.2 hPa North 5 km/h   95% 0 mm WeatherDisplay:10.37 W/m2 CLR
06:30 21.6 °C 20.8 °C 1017.2 hPa North 5 km/h   95% 0 mm WeatherDisplay:10.37 W/m2 CLR
06:35 21.6 °C 20.8 °C 1017.2 hPa North 5 km/h   95% 0 mm WeatherDisplay:10.37 W/m2 CLR
06:40 21.6 °C 20.8 °C 1017.2 hPa North 5 km/h   95% 0 mm WeatherDisplay:10.37 W/m2 CLR
06:45 21.6 °C 20.8 °C 1017.2 hPa North 5 km/h   95% 0 mm WeatherDisplay:10.37 W/m2 CLR
06:50 21.6 °C 20.8 °C 1017.5 hPa North 5 km/h   95% 0 mm WeatherDisplay:10.37 W/m2 CLR
06:55 21.6 °C 20.8 °C 1017.5 hPa North 5 km/h   95% 0 mm WeatherDisplay:10.37 W/m2 CLR
07:00 21.6 °C 20.8 °C 1017.5 hPa North 5 km/h   95% 0 mm WeatherDisplay:10.37 W/m2 CLR
07:06 21.6 °C 20.8 °C 1017.5 hPa North 5 km/h   95% 0 mm WeatherDisplay:10.37 W/m2 CLR
07:11 21.6 °C 20.8 °C 1017.5 hPa North 5 km/h   95% 0 mm WeatherDisplay:10.37 W/m2 CLR
07:16 21.6 °C 20.8 °C 1017.5 hPa North 5 km/h   95% 0 mm WeatherDisplay:10.37 W/m2 CLR
07:21 21.6 °C 20.8 °C 1017.5 hPa North 5 km/h   95% 0 mm WeatherDisplay:10.37 W/m2 FEW
07:26 21.6 °C 20.8 °C 1017.5 hPa North 5 km/h   95% 0 mm WeatherDisplay:10.37 W/m2 FEW
07:31 21.6 °C 20.8 °C 1017.8 hPa North 5 km/h   95% 0 mm WeatherDisplay:10.37 W/m2 FEW
07:36 21.6 °C 20.8 °C 1017.8 hPa North 5 km/h   95% 0 mm WeatherDisplay:10.37 W/m2 FEW
07:41 21.6 °C 20.8 °C 1017.8 hPa North 5 km/h   95% 0 mm WeatherDisplay:10.37 W/m2 FEW
07:46 21.6 °C 20.8 °C 1017.8 hPa North 5 km/h   95% 0 mm WeatherDisplay:10.37 W/m2 FEW
07:51 20.7 °C 19.5 °C 1017.8 hPa East 5 km/h   93% 0 mm WeatherDisplay:10.37 W/m2 FEW
07:56 20.7 °C 19.6 °C 1017.8 hPa East 5 km/h   93% 0 mm WeatherDisplay:10.37 W/m2 FEW
08:01 20.8 °C 19.7 °C 1017.8 hPa East 5 km/h   93% 0 mm WeatherDisplay:10.37 W/m2 FEW
08:06 20.9 °C 19.7 °C 1017.8 hPa East 5 km/h   93% 0 mm WeatherDisplay:10.37 W/m2 FEW
08:11 21 °C 19.8 °C 1017.8 hPa East 5 km/h   93% 0 mm WeatherDisplay:10.37 W/m2 FEW
08:16 21.1 °C 19.9 °C 1017.8 hPa East 5 km/h   93% 0 mm WeatherDisplay:10.37 W/m2 FEW
08:21 21.2 °C 19.9 °C 1017.8 hPa East 5 km/h   92% 0 mm WeatherDisplay:10.37 W/m2 FEW
08:26 21.3 °C 19.9 °C 1017.8 hPa East 5 km/h   92% 0 mm WeatherDisplay:10.37 W/m2 FEW
08:32 21.4 °C 20.1 °C 1018.2 hPa East 5 km/h   92% 0 mm WeatherDisplay:10.37 W/m2 FEW
08:37 21.6 °C 20.2 °C 1018.2 hPa East 5 km/h   92% 0 mm WeatherDisplay:10.37 W/m2 FEW
08:42 21.7 °C 20.2 °C 1018.2 hPa East 5 km/h   91% 0 mm WeatherDisplay:10.37 W/m2 FEW
08:47 21.8 °C 20.1 °C 1018.2 hPa East 5 km/h   90% 0 mm WeatherDisplay:10.37 W/m2 FEW
08:52 22 °C 20.3 °C 1018.2 hPa East 5 km/h   90% 0 mm WeatherDisplay:10.37 W/m2 FEW
08:57 22.2 °C 20.4 °C 1018.2 hPa East 5 km/h   90% 0 mm WeatherDisplay:10.37 W/m2 FEW
09:02 22.3 °C 20.4 °C 1018.2 hPa East 5 km/h   89% 0 mm WeatherDisplay:10.37 W/m2 FEW
09:07 22.5 °C 20.6 °C 1018.2 hPa East 5 km/h   89% 0 mm WeatherDisplay:10.37 W/m2 FEW
09:12 22.7 °C 20.6 °C 1018.2 hPa East 5 km/h   88% 0 mm WeatherDisplay:10.37 W/m2 FEW
09:14 22.8 °C 20.7 °C 1018.2 hPa East 5 km/h   88% 0 mm WeatherDisplay:10.37 W/m2 FEW
09:19 22.9 °C 20.6 °C 1018.2 hPa East 5 km/h   87% 0 mm WeatherDisplay:10.37 W/m2 FEW
09:24 23.1 °C 20.6 °C 1018.5 hPa East 5 km/h   86% 0 mm WeatherDisplay:10.37 W/m2 SCT
09:29 23.3 °C 21 °C 1018.5 hPa East 5 km/h   87% 0 mm WeatherDisplay:10.37 W/m2 SCT
09:30 23.3 °C 20.8 °C 1018.5 hPa East 5 km/h   86% 0 mm WeatherDisplay:10.37 W/m2 SCT
09:35 23.4 °C 20.9 °C 1018.5 hPa East 5 km/h   86% 0 mm WeatherDisplay:10.37 W/m2 SCT
09:40 23.7 °C 20.8 °C 1018.5 hPa East 5 km/h   84% 0 mm WeatherDisplay:10.37 W/m2 SCT
09:45 23.8 °C 20.6 °C 1018.5 hPa East 5 km/h   82% 0 mm WeatherDisplay:10.37 W/m2 SCT
09:50 24.1 °C 20.6 °C 1018.5 hPa North 5 km/h   81% 0 mm WeatherDisplay:10.37 W/m2 SCT
09:55 24.2 °C 20.3 °C 1018.5 hPa North 5 km/h   79% 0 mm WeatherDisplay:10.37 W/m2 SCT
10:00 24.2 °C 19.9 °C 1018.5 hPa North 5 km/h   77% 0 mm WeatherDisplay:10.37 W/m2 SCT
10:05 24.5 °C 20.6 °C 1018.5 hPa North 5 km/h   79% 0 mm WeatherDisplay:10.37 W/m2 SCT
10:10 24.9 °C 21 °C 1018.5 hPa North 5 km/h   79% 0 mm WeatherDisplay:10.37 W/m2 SCT
10:15 25.4 °C 21.3 °C 1018.5 hPa North 5 km/h   78% 0 mm WeatherDisplay:10.37 W/m2 SCT
10:20 25.9 °C 20.9 °C 1018.5 hPa North 5 km/h   74% 0 mm WeatherDisplay:10.37 W/m2 SCT
10:26 26.3 °C 21.3 °C 1018.5 hPa North 5 km/h   74% 0 mm WeatherDisplay:10.37 W/m2 SCT
10:31 26.7 °C 21.5 °C 1018.5 hPa North 5 km/h   73% 0 mm WeatherDisplay:10.37 W/m2 SCT
10:36 27.1 °C 21.8 °C 1018.5 hPa North 5 km/h   73% 0 mm WeatherDisplay:10.37 W/m2 SCT
10:41 27.1 °C 20.7 °C 1018.5 hPa NE 5 km/h   68% 0 mm WeatherDisplay:10.37 W/m2 SCT
10:46 27.3 °C 20.8 °C 1018.5 hPa NE 5 km/h   68% 0 mm WeatherDisplay:10.37 W/m2 SCT
10:51 27.3 °C 20.6 °C 1018.5 hPa NE 5 km/h   67% 0 mm WeatherDisplay:10.37 W/m2 SCT
10:56 27.1 °C 20.4 °C 1018.8 hPa ENE 5 km/h   67% 0 mm WeatherDisplay:10.37 W/m2 SCT
11:01 27 °C 20.6 °C 1018.5 hPa NW 5 km/h 5 km/h 68% 0 mm WeatherDisplay:10.37 W/m2 SCT
11:06 27 °C 20.6 °C 1018.5 hPa NW 5 km/h   68% 0 mm WeatherDisplay:10.37 W/m2 SCT
11:11 27.2 °C 20.7 °C 1018.8 hPa NW 5 km/h   68% 0 mm WeatherDisplay:10.37 W/m2 SCT
11:16 27.3 °C 20.4 °C 1018.8 hPa NW 5 km/h   66% 0 mm WeatherDisplay:10.37 W/m2 SCT
11:21 27.3 °C 20.6 °C 1018.8 hPa NW 5 km/h   67% 0 mm WeatherDisplay:10.37 W/m2 SCT
11:26 27.3 °C 19.9 °C 1018.8 hPa NE 5 km/h 5 km/h 64% 0 mm WeatherDisplay:10.37 W/m2 SCT
11:31 27.4 °C 20.2 °C 1018.8 hPa NW 5 km/h   65% 0 mm WeatherDisplay:10.37 W/m2 SCT
11:36 27.4 °C 20.5 °C 1018.8 hPa NW 5 km/h   66% 0 mm WeatherDisplay:10.37 W/m2 SCT
11:41 27.6 °C 20.4 °C 1018.8 hPa NW 5 km/h   65% 0 mm WeatherDisplay:10.37 W/m2 SCT
11:46 27.7 °C 20.8 °C 1018.8 hPa WNW 5 km/h   66% 0 mm WeatherDisplay:10.37 W/m2 SCT
11:52 27.8 °C 19.8 °C 1018.5 hPa North 5 km/h 5 km/h 62% 0 mm WeatherDisplay:10.37 W/m2 SCT
11:57 27.8 °C 20.4 °C 1018.5 hPa East 5 km/h 5 km/h 64% 0 mm WeatherDisplay:10.37 W/m2 SCT
12:02 27.8 °C 19.6 °C 1018.5 hPa ENE 5 km/h 5 km/h 61% 0 mm WeatherDisplay:10.37 W/m2 SCT
12:07 27.6 °C 20.2 °C 1018.5 hPa NE 5 km/h   64% 0 mm WeatherDisplay:10.37 W/m2 SCT
12:12 27.8 °C 20.8 °C 1018.5 hPa NNE 5 km/h   66% 0 mm WeatherDisplay:10.37 W/m2 SCT
12:17 28.1 °C 20.1 °C 1018.5 hPa NNE 5 km/h   62% 0 mm WeatherDisplay:10.37 W/m2 SCT
12:22 28.2 °C 20.8 °C 1018.5 hPa NW 5 km/h   64% 0 mm WeatherDisplay:10.37 W/m2 SCT
12:27 28.4 °C 20.7 °C 1018.5 hPa WNW 5 km/h 5 km/h 63% 0 mm WeatherDisplay:10.37 W/m2 SCT
12:32 28.6 °C 20.1 °C 1018.5 hPa NNE 5 km/h   60% 0 mm WeatherDisplay:10.37 W/m2 SCT
12:37 28.7 °C 19.9 °C 1018.5 hPa NE 5 km/h   59% 0 mm WeatherDisplay:10.37 W/m2 SCT
12:42 29.1 °C 20.2 °C 1018.2 hPa NW 5 km/h   59% 0 mm WeatherDisplay:10.37 W/m2 SCT
12:47 29.4 °C 20.3 °C 1018.2 hPa NW 5 km/h   58% 0 mm WeatherDisplay:10.37 W/m2 SCT
12:52 29.8 °C 19.8 °C 1018.2 hPa NW 5 km/h   55% 0 mm WeatherDisplay:10.37 W/m2 SCT
12:57 29.8 °C 18.9 °C 1018.2 hPa NW 5 km/h   52% 0 mm WeatherDisplay:10.37 W/m2 SCT
13:02 30.1 °C 20 °C 1018.2 hPa North 5 km/h   55% 0 mm WeatherDisplay:10.37 W/m2 SCT
13:07 30.2 °C 19.6 °C 1018.2 hPa West 5.6 km/h 5.6 km/h 53% 0 mm WeatherDisplay:10.37 W/m2 SCT
13:12 30.5 °C 19.6 °C 1017.8 hPa SSW 5.6 km/h   52% 0 mm WeatherDisplay:10.37 W/m2 SCT
13:18 30.8 °C 20.2 °C 1017.8 hPa WNW 5.6 km/h 5.6 km/h 53% 0 mm WeatherDisplay:10.37 W/m2 SCT
13:23 31.1 °C 20.3 °C 1017.8 hPa SE 5.6 km/h 5.6 km/h 53% 0 mm WeatherDisplay:10.37 W/m2 SCT
13:28 30.9 °C 19.3 °C 1017.8 hPa ENE 5.6 km/h   50% 0 mm WeatherDisplay:10.37 W/m2 SCT
13:33 30.9 °C 19.6 °C 1017.8 hPa WNW 5.6 km/h   51% 0 mm WeatherDisplay:10.37 W/m2 SCT
13:38 30.6 °C 18.7 °C 1017.8 hPa East 5.6 km/h   49% 0 mm WeatherDisplay:10.37 W/m2 SCT
13:43 30.6 °C 19.6 °C 1017.8 hPa NNW 5.6 km/h   52% 0 mm WeatherDisplay:10.37 W/m2 SCT
13:48 30.6 °C 19 °C 1017.8 hPa WNW 5.6 km/h   50% 0 mm WeatherDisplay:10.37 W/m2 SCT
13:53 30.5 °C 19.6 °C 1017.8 hPa WNW 5.6 km/h   52% 0 mm WeatherDisplay:10.37 W/m2 SCT
13:58 30.4 °C 18.5 °C 1017.8 hPa WNW 5.6 km/h   49% 0 mm WeatherDisplay:10.37 W/m2 SCT
14:03 30.4 °C 19.4 °C 1017.8 hPa West 5.6 km/h 5.6 km/h 52% 0 mm WeatherDisplay:10.37 W/m2 SCT
14:08 30.6 °C 19.3 °C 1017.5 hPa West 5.6 km/h   51% 0 mm WeatherDisplay:10.37 W/m2 SCT
14:13 30.5 °C 19.2 °C 1017.5 hPa NNE 5.6 km/h   51% 0 mm WeatherDisplay:10.37 W/m2 BKN
14:18 30.4 °C 18.5 °C 1017.5 hPa ENE 5.6 km/h   49% 0 mm WeatherDisplay:10.37 W/m2 BKN
14:23 30.6 °C 19.3 °C 1017.5 hPa SE 5.6 km/h 5.6 km/h 51% 0 mm WeatherDisplay:10.37 W/m2 BKN
14:28 30.6 °C 18.7 °C 1017.5 hPa ESE 5.6 km/h   49% 0 mm WeatherDisplay:10.37 W/m2 BKN
14:33 30.3 °C 18.7 °C 1017.5 hPa East 5.6 km/h 5.6 km/h 50% 0 mm WeatherDisplay:10.37 W/m2 BKN
14:38 30.3 °C 18.4 °C 1017.5 hPa NNW 5.6 km/h 5.6 km/h 49% 0 mm WeatherDisplay:10.37 W/m2 BKN
14:43 30.4 °C 19.4 °C 1017.5 hPa WSW 5.6 km/h   52% 0 mm WeatherDisplay:10.37 W/m2 BKN
14:48 30.4 °C 19.2 °C 1017.5 hPa West 5.6 km/h   51% 0 mm WeatherDisplay:10.37 W/m2 BKN
14:53 30.1 °C 19.1 °C 1017.5 hPa East 5.6 km/h   52% 0 mm WeatherDisplay:10.37 W/m2 BKN
14:58 29.4 °C 19.1 °C 1017.5 hPa East 5.6 km/h   54% 0 mm WeatherDisplay:10.37 W/m2 BKN
15:03 29.1 °C 19.4 °C 1017.5 hPa East 5.6 km/h   56% 0 mm WeatherDisplay:10.37 W/m2 BKN
15:08 29.1 °C 17.3 °C 1017.2 hPa ENE 5.6 km/h 5.6 km/h 49% 0 mm WeatherDisplay:10.37 W/m2 BKN
15:13 29.2 °C 17.1 °C 1017.2 hPa SSE 5.6 km/h   48% 0 mm WeatherDisplay:10.37 W/m2 BKN
15:18 29.4 °C 18.2 °C 1017.2 hPa SSE 5.6 km/h   51% 0 mm WeatherDisplay:10.37 W/m2 BKN
15:23 29.5 °C 18.9 °C 1017.2 hPa SSE 5.6 km/h   53% 0 mm WeatherDisplay:10.37 W/m2 BKN
15:28 29.5 °C 19.2 °C 1017.2 hPa SSE 5.6 km/h   54% 0 mm WeatherDisplay:10.37 W/m2 BKN
15:33 29.3 °C 19.3 °C 1017.2 hPa WNW 5.6 km/h   55% 0 mm WeatherDisplay:10.37 W/m2 BKN
15:38 29.2 °C 19.8 °C 1017.2 hPa WNW 5.6 km/h   57% 0 mm WeatherDisplay:10.37 W/m2 BKN
15:43 29.1 °C 19.4 °C 1017.2 hPa WNW 5.6 km/h   56% 0 mm WeatherDisplay:10.37 W/m2 BKN
15:48 29.2 °C 19.6 °C 1017.2 hPa SSW 5.6 km/h 5.6 km/h 56% 0 mm WeatherDisplay:10.37 W/m2 BKN
15:54 29.4 °C 19.7 °C 1017.2 hPa SE 5.6 km/h 5.6 km/h 56% 0 mm WeatherDisplay:10.37 W/m2 BKN
15:59 29.5 °C 19.5 °C 1017.2 hPa North 5.6 km/h   55% 0 mm WeatherDisplay:10.37 W/m2 BKN
16:04 29.6 °C 19.6 °C 1017.2 hPa WNW 5.6 km/h   55% 0 mm WeatherDisplay:10.37 W/m2 BKN
16:09 29.7 °C 19.4 °C 1016.8 hPa SSW 5.6 km/h 5.6 km/h 54% 0 mm WeatherDisplay:10.37 W/m2 BKN
16:14 29.7 °C 19.1 °C 1016.8 hPa SW 5.6 km/h   53% 0 mm WeatherDisplay:10.37 W/m2 BKN
16:19 29.8 °C 19.8 °C 1016.8 hPa NNE 5.6 km/h   55% 0 mm WeatherDisplay:10.37 W/m2 BKN
16:24 29.8 °C 19.8 °C 1016.8 hPa SSW 5.6 km/h 5.6 km/h 55% 0 mm WeatherDisplay:10.37 W/m2 BKN
16:29 29.7 °C 20.2 °C 1016.8 hPa ENE 5.6 km/h 5.6 km/h 57% 0 mm WeatherDisplay:10.37 W/m2 BKN
16:34 29.7 °C 20.6 °C 1016.8 hPa West 5.6 km/h 5.6 km/h 58% 0 mm WeatherDisplay:10.37 W/m2 BKN
16:39 29.7 °C 20 °C 1016.8 hPa WSW 5.6 km/h   56% 0 mm WeatherDisplay:10.37 W/m2 BKN
16:44 29.7 °C 20.6 °C 1016.5 hPa West 5.6 km/h 5.6 km/h 58% 0 mm WeatherDisplay:10.37 W/m2 BKN
16:49 29.8 °C 20.6 °C 1016.5 hPa SSW 5.6 km/h   58% 0 mm WeatherDisplay:10.37 W/m2 BKN
16:54 30.1 °C 20.6 °C 1016.5 hPa SSW 5.6 km/h   57% 0 mm WeatherDisplay:10.37 W/m2 BKN
16:59 30.2 °C 20.2 °C 1016.5 hPa SSW 5.6 km/h 5.6 km/h 55% 0 mm WeatherDisplay:10.37 W/m2 BKN
17:04 29.8 °C 20.1 °C 1016.5 hPa SSW 5.6 km/h   56% 0 mm WeatherDisplay:10.37 W/m2 BKN
17:09 29.5 °C 20.1 °C 1016.5 hPa SSW 5.6 km/h   57% 0 mm WeatherDisplay:10.37 W/m2 BKN
17:15 29.6 °C 20.4 °C 1016.5 hPa SSW 5.6 km/h   58% 0 mm WeatherDisplay:10.37 W/m2 BKN
17:20 29.4 °C 20.3 °C 1016.5 hPa SSW 5.6 km/h   58% 0 mm WeatherDisplay:10.37 W/m2 BKN
17:25 29.1 °C 20 °C 1016.5 hPa SSW 5.6 km/h   58% 0 mm WeatherDisplay:10.37 W/m2 BKN
17:30 28.8 °C 20.3 °C 1016.5 hPa SSW 5.6 km/h   60% 0 mm WeatherDisplay:10.37 W/m2 BKN
17:35 28.7 °C 20.7 °C 1016.1 hPa SSW 5.6 km/h   62% 0 mm WeatherDisplay:10.37 W/m2 BKN
17:40 28.6 °C 19.8 °C 1016.1 hPa East 5.6 km/h   59% 0 mm WeatherDisplay:10.37 W/m2 BKN
17:45 28.7 °C 20.1 °C 1016.1 hPa East 5.6 km/h   60% 0 mm WeatherDisplay:10.37 W/m2 BKN
17:50 28.7 °C 20.2 °C 1016.1 hPa East 5.6 km/h   60% 0 mm WeatherDisplay:10.37 W/m2 BKN
17:55 28.7 °C 19.7 °C 1016.1 hPa East 5.6 km/h   58% 0 mm WeatherDisplay:10.37 W/m2 BKN
18:00 28.7 °C 19.3 °C 1016.1 hPa WNW 5.6 km/h 5.6 km/h 57% 0 mm WeatherDisplay:10.37 W/m2 BKN
18:05 28.7 °C 19.6 °C 1016.1 hPa West 5.6 km/h   58% 0 mm WeatherDisplay:10.37 W/m2 BKN
18:10 28.7 °C 20.1 °C 1016.1 hPa West 5.6 km/h   60% 0 mm WeatherDisplay:10.37 W/m2 BKN
18:16 28.7 °C 19.6 °C 1016.1 hPa SW 5.6 km/h 5.6 km/h 58% 0 mm WeatherDisplay:10.37 W/m2 BKN
18:21 28.6 °C 19.6 °C 1016.1 hPa SW 5.6 km/h   58% 0 mm WeatherDisplay:10.37 W/m2 SCT
18:26 28.6 °C 19.6 °C 1016.1 hPa SW 5.6 km/h   58% 0 mm WeatherDisplay:10.37 W/m2 SCT
18:31 28.6 °C 20.1 °C 1016.1 hPa WSW 5.6 km/h   60% 0 mm WeatherDisplay:10.37 W/m2 SCT
18:36 28.4 °C 19.4 °C 1016.1 hPa WSW 5.6 km/h   58% 0 mm WeatherDisplay:10.37 W/m2 SCT
18:41 28.3 °C 19.3 °C 1016.1 hPa NE 5.6 km/h 5.6 km/h 58% 0 mm WeatherDisplay:10.37 W/m2 SCT
18:46 28.2 °C 18.9 °C 1016.1 hPa NE 5.6 km/h   57% 0 mm WeatherDisplay:10.37 W/m2 SCT
18:51 28.2 °C 19.1 °C 1016.1 hPa NE 5.6 km/h   58% 0 mm WeatherDisplay:10.37 W/m2 SCT
18:56 28.1 °C 19.8 °C 1016.1 hPa NE 5.6 km/h   61% 0 mm WeatherDisplay:10.37 W/m2 SCT
19:01 27.9 °C 19.4 °C 1016.1 hPa NE 5.6 km/h   60% 0 mm WeatherDisplay:10.37 W/m2 SCT
19:06 27.8 °C 19.6 °C 1016.1 hPa NE 5.6 km/h   61% 0 mm WeatherDisplay:10.37 W/m2 SCT
19:11 27.7 °C 19.5 °C 1016.1 hPa NE 5.6 km/h   61% 0 mm WeatherDisplay:10.37 W/m2 SCT
19:16 27.6 °C 19.7 °C 1016.1 hPa NE 5.6 km/h   62% 0 mm WeatherDisplay:10.37 W/m2 SCT
19:17 27.6 °C 19.6 °C 1016.1 hPa NE 5.6 km/h   62% 0 mm WeatherDisplay:10.37 W/m2 SCT
19:22 27.4 °C 19.3 °C 1016.1 hPa NE 5.6 km/h   61% 0 mm WeatherDisplay:10.37 W/m2 SCT
19:27 27.3 °C 19.2 °C 1016.1 hPa NE 5.6 km/h   61% 0 mm WeatherDisplay:10.37 W/m2 SCT
19:32 27.3 °C 19.6 °C 1016.1 hPa NE 5.6 km/h   63% 0 mm WeatherDisplay:10.37 W/m2 SCT
19:37 27.2 °C 19.6 °C 1016.1 hPa NE 5.6 km/h   63% 0 mm WeatherDisplay:10.37 W/m2 SCT
19:42 27.1 °C 19.4 °C 1016.1 hPa NE 5.6 km/h   63% 0 mm WeatherDisplay:10.37 W/m2 SCT
19:47 27 °C 19.6 °C 1016.5 hPa NE 5.6 km/h   64% 0 mm WeatherDisplay:10.37 W/m2 SCT
19:52 26.8 °C 19.4 °C 1016.1 hPa NE 5.6 km/h   64% 0 mm WeatherDisplay:10.37 W/m2 SCT
19:57 26.7 °C 19.1 °C 1016.5 hPa NE 5.6 km/h   63% 0 mm WeatherDisplay:10.37 W/m2 SCT
20:02 26.6 °C 19.2 °C 1016.5 hPa NE 5.6 km/h   64% 0 mm WeatherDisplay:10.37 W/m2 SCT
20:07 26.6 °C 19.4 °C 1016.5 hPa NE 5.6 km/h   65% 0 mm WeatherDisplay:10.37 W/m2 SCT
20:12 26.4 °C 19.3 °C 1016.5 hPa NE 5.6 km/h   65% 0 mm WeatherDisplay:10.37 W/m2 SCT
20:17 26.3 °C 19.4 °C 1016.5 hPa NE 5.6 km/h   66% 0 mm WeatherDisplay:10.37 W/m2 SCT
20:22 26.2 °C 19.3 °C 1016.5 hPa NE 5.6 km/h   66% 0 mm WeatherDisplay:10.37 W/m2 BKN
20:27 26.1 °C 19.4 °C 1016.5 hPa NE 5.6 km/h   67% 0 mm WeatherDisplay:10.37 W/m2 BKN
20:32 25.9 °C 19.3 °C 1016.5 hPa NE 5.6 km/h   67% 0 mm WeatherDisplay:10.37 W/m2 BKN
20:38 25.8 °C 19.2 °C 1016.5 hPa NE 5.6 km/h   67% 0 mm WeatherDisplay:10.37 W/m2 BKN
20:43 25.7 °C 19.3 °C 1016.5 hPa NE 5.6 km/h   68% 0 mm WeatherDisplay:10.37 W/m2 BKN
20:48 25.4 °C 19.3 °C 1016.5 hPa NE 5.6 km/h   69% 0 mm WeatherDisplay:10.37 W/m2 BKN
20:53 25.3 °C 18.9 °C 1016.5 hPa NE 5.6 km/h   68% 0 mm WeatherDisplay:10.37 W/m2 BKN
20:58 25.2 °C 19.1 °C 1016.5 hPa NE 5.6 km/h   69% 0 mm WeatherDisplay:10.37 W/m2 BKN
21:03 25.1 °C 19 °C 1016.5 hPa NE 5.6 km/h   69% 0 mm WeatherDisplay:10.37 W/m2 BKN
21:08 24.9 °C 19.1 °C 1016.5 hPa NE 5.6 km/h   70% 0 mm WeatherDisplay:10.37 W/m2 BKN
21:13 24.8 °C 18.9 °C 1016.5 hPa NE 5.6 km/h   70% 0 mm WeatherDisplay:10.37 W/m2 BKN
21:18 24.7 °C 18.9 °C 1016.5 hPa NE 5.6 km/h   70% 0 mm WeatherDisplay:10.37 W/m2 BKN
21:23 24.7 °C 19.1 °C 1016.8 hPa NE 5.6 km/h   71% 0 mm WeatherDisplay:10.37 W/m2 SCT
21:28 24.6 °C 19 °C 1016.8 hPa NE 5.6 km/h   71% 0 mm WeatherDisplay:10.37 W/m2 SCT
21:33 24.5 °C 18.9 °C 1016.8 hPa NE 5.6 km/h   71% 0 mm WeatherDisplay:10.37 W/m2 SCT
21:38 24.4 °C 19.2 °C 1016.8 hPa NE 5.6 km/h   73% 0 mm WeatherDisplay:10.37 W/m2 SCT
21:43 24.3 °C 19.4 °C 1016.8 hPa NE 5.6 km/h   74% 0 mm WeatherDisplay:10.37 W/m2 SCT
21:48 24.3 °C 19.1 °C 1017.2 hPa NE 5.6 km/h   73% 0 mm WeatherDisplay:10.37 W/m2 SCT
21:54 24.2 °C 19 °C 1017.2 hPa NE 5.6 km/h   73% 0 mm WeatherDisplay:10.37 W/m2 SCT
21:59 24 °C 18.8 °C 1017.5 hPa NE 5.6 km/h   73% 0 mm WeatherDisplay:10.37 W/m2 SCT
22:04 23.9 °C 18.9 °C 1017.5 hPa NE 5.6 km/h   74% 0 mm WeatherDisplay:10.37 W/m2 SCT
22:09 23.8 °C 18.9 °C 1017.5 hPa NE 5.6 km/h   74% 0 mm WeatherDisplay:10.37 W/m2 SCT
22:14 23.7 °C 18.8 °C 1017.8 hPa NE 5.6 km/h   74% 0 mm WeatherDisplay:10.37 W/m2 SCT
22:19 23.6 °C 18.9 °C 1017.8 hPa NE 5.6 km/h   75% 0 mm WeatherDisplay:10.37 W/m2 SCT
22:24 23.4 °C 18.9 °C 1017.8 hPa NE 5.6 km/h   76% 0 mm WeatherDisplay:10.37 W/m2 SCT
22:29 23.4 °C 19.1 °C 1017.8 hPa NE 5.6 km/h   77% 0 mm WeatherDisplay:10.37 W/m2 SCT
22:34 23.2 °C 18.9 °C 1017.8 hPa NE 5.6 km/h   77% 0 mm WeatherDisplay:10.37 W/m2 SCT
22:39 23.1 °C 19.1 °C 1017.8 hPa NE 5.6 km/h   78% 0 mm WeatherDisplay:10.37 W/m2 SCT
22:44 23 °C 18.9 °C 1017.8 hPa NE 5.6 km/h   78% 0 mm WeatherDisplay:10.37 W/m2 SCT
22:49 23.1 °C 19.2 °C 1017.8 hPa NE 5.6 km/h   79% 0 mm WeatherDisplay:10.37 W/m2 SCT
22:54 23 °C 19.2 °C 1018.2 hPa NE 5.6 km/h   79% 0 mm WeatherDisplay:10.37 W/m2 SCT
22:59 23 °C 19.2 °C 1017.8 hPa NE 5.6 km/h   79% 0 mm WeatherDisplay:10.37 W/m2 SCT
23:04 23.1 °C 19.2 °C 1017.8 hPa NE 5.6 km/h   79% 0 mm WeatherDisplay:10.37 W/m2 SCT
23:09 23.1 °C 19.2 °C 1017.8 hPa NE 5.6 km/h   79% 0 mm WeatherDisplay:10.37 W/m2 SCT
23:14 22.9 °C 19.1 °C 1018.2 hPa NE 5.6 km/h   79% 0 mm WeatherDisplay:10.37 W/m2 SCT
23:19 22.8 °C 19.2 °C 1018.2 hPa NE 5.6 km/h   80% 0 mm WeatherDisplay:10.37 W/m2 SCT
23:24 22.7 °C 19.1 °C 1017.8 hPa NE 5.6 km/h   80% 0 mm WeatherDisplay:10.37 W/m2 SCT
23:30 22.7 °C 19.1 °C 1018.2 hPa NE 5.6 km/h   80% 0 mm WeatherDisplay:10.37 W/m2 SCT
23:35 22.5 °C 19.1 °C 1017.8 hPa Calm     81% 0 mm WeatherDisplay:10.37 W/m2 SCT
23:40 22.4 °C 18.9 °C 1017.8 hPa Calm     81% 0 mm WeatherDisplay:10.37 W/m2 SCT
23:45 22.3 °C 19.1 °C 1017.8 hPa Calm     82% 0 mm WeatherDisplay:10.37 W/m2 SCT
23:50 22.2 °C 19 °C 1017.8 hPa Calm     82% 0 mm WeatherDisplay:10.37 W/m2 SCT
23:55 22.2 °C 19 °C 1018.2 hPa Calm     82% 0 mm WeatherDisplay:10.37 W/m2 SCT
Piedmont Bend
Compliments of Weather Underground - 4 mb